Main page
METAR-TAF:

METAR-TAF

Airports :

Niederstetten, Germany

Niederstetten Air Base

latitude: 49-24N, longitude: 009-58E, elevation: 468 m

Current weather observation

The report was made 33 minutes ago, at 22:20 UTC
Wind 2 kt from variable directions
Temperature 4°C
Humidity 81%
Pressure 1018 hPa
Visibility 10 km or more
Few clouds at a height of 16000 ft
Broken clouds at a height of 27000 ft

METAR: ETHN 262220Z VRB02KT 9999 FEW160 BKN270 04/01 Q1018 BLU+

Time: 00:53 (22:53 UTC)

Forecast

The report was made 8 hours and 20 minutes ago, at 14:33 UTC
Forecast valid from 26 at 14 UTC to 26 at 23 UTC
Wind 15 kt from the West with gusts up to 25 kt
Visibility: 1500 m
Scattered clouds at a height of 3000 ft

TAF: ETHN 261433Z 2614/2623 26015G25KT 9999 NSW SCT030 CANCEL 1500

Weather observations and forecasts of more than 4000 airports (METAR and TAF reports).

The available stations are represented by yellow and red dots on the map.

Hover mouse over dot to see the name of the station.

Then click to see weather observations and forecasts.

To change the map : click on the green buttons with a black cross to zoom in, on the green button with a dash to zoom out, or on the green arrows for adjacent maps.


METAR-TAF: